Time;durP1;ratioP1;P1;durP2;ratioP2;P2;SDS_P1;SDS_P2;PMS_P1;PMS_P2;Temp;Humidity;BMP_temperature;BMP_pressure;BME280_temperature;BME280_humidity;BME280_pressure;Samples;Min_cycle;Max_cycle;Signal;HPM_P1;HPM_P2
2022/03/22 00:02:04;;;;;;;35.67;22.02;;;10.90;20.40;;;;;;4907584;29;20406;-76
2022/03/22 00:04:30;;;;;;;38.63;22.65;;;10.90;20.90;;;;;;4908157;29;20412;-77
2022/03/22 00:06:56;;;;;;;39.30;23.55;;;10.90;20.80;;;;;;4903005;28;20453;-74
2022/03/22 00:09:22;;;;;;;43.60;22.85;;;10.90;20.30;;;;;;4908746;28;20406;-74
2022/03/22 00:11:50;;;;;;;39.10;23.25;;;10.80;21.40;;;;;;4916389;28;20445;-75
2022/03/22 00:14:16;;;;;;;34.33;21.77;;;10.70;21.50;;;;;;4913693;29;20414;-74
2022/03/22 00:16:42;;;;;;;38.17;21.10;;;10.70;21.00;;;;;;4922345;28;20408;-74
2022/03/22 00:19:07;;;;;;;35.55;20.42;;;10.80;20.60;;;;;;4914124;28;20410;-74
2022/03/22 00:21:35;;;;;;;35.92;20.50;;;10.90;20.10;;;;;;4910193;28;20424;-74
2022/03/22 00:24:01;;;;;;;37.05;21.15;;;10.90;20.00;;;;;;4915430;28;20498;-73
2022/03/22 00:26:27;;;;;;;36.72;22.10;;;10.90;19.80;;;;;;4919224;28;20417;-73
2022/03/22 00:28:53;;;;;;;35.90;22.08;;;10.90;19.40;;;;;;4917255;28;20417;-74
2022/03/22 00:31:19;;;;;;;38.85;21.85;;;10.80;20.00;;;;;;4911454;28;20405;-73
2022/03/22 00:33:44;;;;;;;38.85;21.83;;;10.80;19.50;;;;;;4914979;29;20409;-73
2022/03/22 00:36:10;;;;;;;33.83;20.80;;;10.80;19.20;;;;;;4923083;28;20501;-74
2022/03/22 00:38:36;;;;;;;37.65;21.45;;;10.90;19.00;;;;;;4908929;28;20427;-75
2022/03/22 00:41:02;;;;;;;38.20;21.50;;;10.80;19.10;;;;;;4909816;29;20503;-73
2022/03/22 00:43:27;;;;;;;39.23;21.70;;;10.70;19.10;;;;;;4898760;28;20409;-74
2022/03/22 00:45:54;;;;;;;34.20;20.57;;;10.70;19.20;;;;;;4910725;28;20421;-75
2022/03/22 00:48:20;;;;;;;35.83;21.00;;;10.70;18.80;;;;;;4911607;28;20401;-75
2022/03/22 00:50:50;;;;;;;33.33;20.10;;;10.70;19.20;;;;;;4920044;28;20428;-75
2022/03/22 00:53:18;;;;;;;36.28;19.88;;;10.70;19.10;;;;;;4923873;28;20891;-74
2022/03/22 00:55:45;;;;;;;35.53;19.90;;;10.80;19.00;;;;;;4900359;28;20405;-74
2022/03/22 00:58:11;;;;;;;33.17;20.25;;;10.80;18.70;;;;;;4918759;28;20456;-75
2022/03/22 01:00:37;;;;;;;34.40;20.50;;;10.70;18.40;;;;;;4916176;28;20409;-74
2022/03/22 01:03:04;;;;;;;36.38;20.77;;;10.80;18.90;;;;;;4917051;28;20398;-74
2022/03/22 01:05:31;;;;;;;33.85;20.58;;;10.80;18.40;;;;;;4915705;28;21064;-73
2022/03/22 01:08:01;;;;;;;42.75;22.27;;;10.70;18.50;;;;;;4919270;28;20426;-74
2022/03/22 01:10:28;;;;;;;35.15;20.90;;;10.70;18.90;;;;;;4923790;28;20460;-77
2022/03/22 01:12:54;;;;;;;32.88;20.40;;;10.70;18.70;;;;;;4924089;28;20413;-78
2022/03/22 01:15:24;;;;;;;33.70;20.40;;;10.70;18.20;;;;;;4929235;28;20410;-76
2022/03/22 01:17:56;;;;;;;34.30;20.48;;;10.80;17.70;;;;;;4928789;28;20412;-76
2022/03/22 01:20:25;;;;;;;33.70;20.60;;;10.70;17.50;;;;;;4920123;28;20447;-76
2022/03/22 01:22:52;;;;;;;41.55;22.10;;;10.70;18.30;;;;;;4942149;28;20409;-77
2022/03/22 01:25:20;;;;;;;37.72;21.88;;;10.70;18.00;;;;;;4931225;28;20439;-77
2022/03/22 01:27:47;;;;;;;34.42;19.85;;;10.70;17.80;;;;;;4924919;28;20410;-76
2022/03/22 01:30:15;;;;;;;32.17;19.73;;;10.70;17.60;;;;;;4933219;28;20847;-77
2022/03/22 01:32:41;;;;;;;34.17;19.50;;;10.70;17.90;;;;;;4926400;28;20432;-77
2022/03/22 01:35:10;;;;;;;33.80;20.80;;;10.70;17.70;;;;;;4923393;28;20862;-77
2022/03/22 01:37:37;;;;;;;41.95;21.13;;;10.70;17.40;;;;;;4937355;28;20409;-76
2022/03/22 01:40:05;;;;;;;36.03;20.08;;;10.70;17.30;;;;;;4934496;28;20406;-77
2022/03/22 01:42:30;;;;;;;32.35;19.20;;;10.70;17.20;;;;;;4905626;29;20409;-77
2022/03/22 01:44:56;;;;;;;38.10;21.08;;;10.70;17.20;;;;;;4928444;28;20447;-75
2022/03/22 01:47:25;;;;;;;34.88;20.65;;;10.60;17.30;;;;;;4919917;28;20444;-77
2022/03/22 01:49:51;;;;;;;32.22;19.40;;;10.60;17.10;;;;;;4936883;28;20406;-77
2022/03/22 01:52:19;;;;;;;34.40;18.90;;;10.60;16.70;;;;;;4930076;28;20477;-76
2022/03/22 01:54:50;;;;;;;38.15;20.92;;;10.60;17.00;;;;;;4922299;29;20814;-77
2022/03/22 01:57:20;;;;;;;37.95;20.55;;;10.70;16.40;;;;;;4915705;28;20421;-77
2022/03/22 01:59:47;;;;;;;36.17;20.23;;;10.60;16.90;;;;;;4928202;28;20401;-77
2022/03/22 02:07:45;;;;;;;36.88;20.05;;;10.50;16.70;;;;;;4936027;28;20444;-77
2022/03/22 02:10:12;;;;;;;33.10;19.40;;;10.40;16.50;;;;;;4899135;28;20496;-80
2022/03/22 02:12:38;;;;;;;31.90;19.50;;;10.50;16.50;;;;;;4921912;28;20428;-78
2022/03/22 02:15:05;;;;;;;31.08;19.08;;;10.50;16.20;;;;;;4921745;28;20413;-77
2022/03/22 02:17:30;;;;;;;29.55;19.20;;;10.40;16.20;;;;;;4921930;29;20458;-76
2022/03/22 02:19:56;;;;;;;34.20;19.60;;;10.50;16.40;;;;;;4926690;28;20418;-77
2022/03/22 02:22:31;;;;;;;36.25;21.20;;;10.50;16.90;;;;;;4915510;28;20872;-76
2022/03/22 02:24:56;;;;;;;32.03;19.67;;;10.40;17.10;;;;;;4916635;29;20457;-76
2022/03/22 02:27:25;;;;;;;36.50;20.05;;;10.40;16.50;;;;;;4911816;28;20452;-77
2022/03/22 02:29:50;;;;;;;31.67;19.25;;;10.50;16.40;;;;;;4918128;28;20406;-77
2022/03/22 02:32:26;;;;;;;37.22;21.23;;;10.50;16.20;;;;;;4915591;28;20398;-78
2022/03/22 02:34:52;;;;;;;32.20;19.13;;;10.50;15.90;;;;;;4917353;28;20484;-76
2022/03/22 02:37:18;;;;;;;39.63;20.80;;;10.70;16.50;;;;;;4902762;28;20421;-77
2022/03/22 02:39:44;;;;;;;31.20;20.23;;;10.60;15.60;;;;;;4923436;28;20409;-77
2022/03/22 02:42:10;;;;;;;33.58;20.10;;;10.50;15.80;;;;;;4925290;28;20429;-76
2022/03/22 02:44:36;;;;;;;36.78;20.35;;;10.60;15.90;;;;;;4924244;28;20409;-77
2022/03/22 02:47:02;;;;;;;31.92;19.88;;;10.60;15.60;;;;;;4913436;29;21002;-75
2022/03/22 02:49:30;;;;;;;32.17;19.73;;;10.50;15.90;;;;;;4918965;29;20472;-76
2022/03/22 02:51:56;;;;;;;36.85;20.02;;;10.50;15.60;;;;;;4901386;28;20409;-77
2022/03/22 02:54:21;;;;;;;31.37;20.03;;;10.50;15.80;;;;;;4916482;28;20936;-77
2022/03/22 02:56:47;;;;;;;34.17;20.27;;;10.50;15.80;;;;;;4913588;28;20429;-77
2022/03/22 02:59:12;;;;;;;30.27;19.00;;;10.40;16.00;;;;;;4916722;28;20596;-77
2022/03/22 03:01:38;;;;;;;34.40;19.70;;;10.50;16.30;;;;;;4918938;28;20415;-76
2022/03/22 03:04:04;;;;;;;32.10;19.90;;;10.40;15.50;;;;;;4914230;28;20409;-77
2022/03/22 03:06:29;;;;;;;30.60;19.10;;;10.40;15.80;;;;;;4897445;28;20425;-75
2022/03/22 03:08:57;;;;;;;33.53;19.50;;;10.40;15.80;;;;;;4914671;28;20409;-78
2022/03/22 03:11:23;;;;;;;28.88;17.70;;;10.30;15.60;;;;;;4899493;29;20492;-78
2022/03/22 03:16:32;;;;;;;30.40;18.60;;;10.30;16.10;;;;;;4923359;29;20401;-77
2022/03/22 03:18:58;;;;;;;31.87;18.10;;;10.30;15.40;;;;;;4929805;28;20481;-76
2022/03/22 03:21:24;;;;;;;32.43;19.37;;;10.40;15.00;;;;;;4920948;28;20417;-77
2022/03/22 03:23:49;;;;;;;32.70;19.40;;;10.40;15.30;;;;;;4914604;28;20443;-76
2022/03/22 03:26:15;;;;;;;30.40;18.07;;;10.30;14.90;;;;;;4931803;28;20433;-77
2022/03/22 03:28:40;;;;;;;30.73;17.20;;;10.30;14.90;;;;;;4911919;28;20798;-76
2022/03/22 03:31:06;;;;;;;31.77;18.95;;;10.30;14.50;;;;;;4920259;28;20403;-77
2022/03/22 03:33:32;;;;;;;31.03;18.00;;;10.30;14.40;;;;;;4900327;28;20472;-76
2022/03/22 03:35:58;;;;;;;30.17;18.23;;;10.20;14.30;;;;;;4918090;28;20970;-77
2022/03/22 03:38:23;;;;;;;31.00;17.83;;;10.20;14.50;;;;;;4902764;28;20418;-78
2022/03/22 03:43:53;;;;;;;32.30;17.80;;;10.10;14.50;;;;;;4929921;29;20420;-78
2022/03/22 03:49:04;;;;;;;27.98;17.90;;;10.00;14.30;;;;;;4919878;29;20909;-77
2022/03/22 03:51:29;;;;;;;29.60;17.77;;;10.00;15.00;;;;;;4912238;28;20405;-77
2022/03/22 03:53:55;;;;;;;30.77;17.20;;;9.90;14.50;;;;;;4931068;28;20415;-77
2022/03/22 03:56:20;;;;;;;32.37;16.70;;;9.90;14.70;;;;;;4911065;28;20435;-77
2022/03/22 03:58:46;;;;;;;29.90;18.13;;;9.80;15.20;;;;;;4912446;28;20474;-77
2022/03/22 04:01:12;;;;;;;29.08;16.85;;;9.80;14.60;;;;;;4923127;28;20489;-77
2022/03/22 04:03:39;;;;;;;33.58;17.40;;;9.80;14.60;;;;;;4922787;29;20405;-77
2022/03/22 04:06:05;;;;;;;28.33;17.42;;;9.80;14.90;;;;;;4921309;29;20426;-77
2022/03/22 04:08:31;;;;;;;29.05;17.25;;;9.80;14.80;;;;;;4915735;28;20417;-76
2022/03/22 04:10:56;;;;;;;29.50;17.05;;;9.80;14.70;;;;;;4926025;28;20413;-76
2022/03/22 04:13:22;;;;;;;26.83;16.92;;;9.80;14.30;;;;;;4930124;28;20401;-76
2022/03/22 04:15:48;;;;;;;31.35;17.02;;;9.70;14.00;;;;;;4922477;28;20429;-77
2022/03/22 04:18:14;;;;;;;26.70;17.20;;;9.70;14.40;;;;;;4926221;28;20432;-76
2022/03/22 04:20:40;;;;;;;27.13;16.85;;;9.70;14.40;;;;;;4932412;28;20468;-77
2022/03/22 04:23:05;;;;;;;26.98;16.90;;;9.60;14.40;;;;;;4924304;28;20421;-76
2022/03/22 04:25:31;;;;;;;27.95;17.55;;;9.60;14.40;;;;;;4919665;28;20509;-77
2022/03/22 04:33:25;;;;;;;28.13;17.70;;;9.40;15.30;;;;;;4918371;28;20751;-75
2022/03/22 04:35:51;;;;;;;33.13;17.33;;;9.30;14.80;;;;;;4912563;28;20405;-76
2022/03/22 04:38:17;;;;;;;25.37;16.17;;;9.30;14.60;;;;;;4909903;28;20444;-75
2022/03/22 04:40:42;;;;;;;28.40;16.90;;;9.40;14.30;;;;;;4922394;28;20579;-76
2022/03/22 04:43:08;;;;;;;30.03;17.20;;;9.40;14.20;;;;;;4914546;28;20410;-77
2022/03/22 04:45:35;;;;;;;28.17;16.83;;;9.40;14.20;;;;;;4919648;28;20515;-77
2022/03/22 04:48:01;;;;;;;28.85;16.70;;;9.30;14.50;;;;;;4912795;28;20409;-77
2022/03/22 04:50:26;;;;;;;26.50;16.60;;;9.30;14.40;;;;;;4921915;28;20989;-76
2022/03/22 04:58:20;;;;;;;25.30;16.03;;;9.40;15.10;;;;;;4918709;29;20972;-77
2022/03/22 05:00:46;;;;;;;27.60;16.27;;;9.30;14.60;;;;;;4914559;28;20409;-77
2022/03/22 05:03:11;;;;;;;25.98;16.48;;;9.40;14.10;;;;;;4919781;28;20871;-77
2022/03/22 05:08:23;;;;;;;28.10;16.52;;;9.30;13.90;;;;;;4911225;29;20509;-76
2022/03/22 05:10:49;;;;;;;27.50;15.97;;;9.30;14.20;;;;;;4923389;28;20437;-79
2022/03/22 05:13:14;;;;;;;26.20;15.65;;;9.20;15.00;;;;;;4903512;28;20429;-76
2022/03/22 05:15:40;;;;;;;31.45;17.13;;;9.20;14.10;;;;;;4912526;28;20437;-76
2022/03/22 05:18:05;;;;;;;25.17;16.40;;;9.20;14.20;;;;;;4910533;28;20423;-78
2022/03/22 05:20:37;;;;;;;23.33;15.35;;;9.30;14.00;;;;;;4917709;28;20451;-76
2022/03/22 05:23:03;;;;;;;24.48;15.70;;;9.30;14.60;;;;;;4923386;28;20413;-77
2022/03/22 05:25:31;;;;;;;28.00;15.93;;;9.20;13.90;;;;;;4931133;28;20458;-77
2022/03/22 05:28:00;;;;;;;24.07;15.30;;;9.20;13.90;;;;;;4924434;28;20469;-77
2022/03/22 05:30:25;;;;;;;27.02;16.42;;;9.20;13.70;;;;;;4923586;28;20402;-76
2022/03/22 05:32:51;;;;;;;26.85;16.27;;;9.20;14.00;;;;;;4923252;28;20424;-76
2022/03/22 05:35:16;;;;;;;29.15;15.93;;;9.20;14.20;;;;;;4925341;28;20451;-76
2022/03/22 05:37:42;;;;;;;24.80;15.60;;;9.20;13.80;;;;;;4914697;28;20413;-76
2022/03/22 05:40:08;;;;;;;26.80;15.73;;;9.10;14.10;;;;;;4914512;28;20413;-76
2022/03/22 05:42:36;;;;;;;21.48;15.30;;;9.20;14.40;;;;;;4913396;29;20417;-77
2022/03/22 05:45:03;;;;;;;30.48;16.70;;;9.10;14.80;;;;;;4915051;28;20479;-77
2022/03/22 05:47:28;;;;;;;26.70;16.10;;;9.10;13.90;;;;;;4897874;28;20417;-78
2022/03/22 05:49:55;;;;;;;26.53;15.30;;;9.10;13.90;;;;;;4930726;28;20614;-77
2022/03/22 05:52:20;;;;;;;23.98;15.70;;;9.20;14.60;;;;;;4918110;28;20934;-77
2022/03/22 05:54:46;;;;;;;27.85;16.15;;;9.10;13.60;;;;;;4917107;28;20784;-77
2022/03/22 05:57:11;;;;;;;28.27;16.70;;;9.30;13.40;;;;;;4918750;28;20509;-77
2022/03/22 05:59:37;;;;;;;24.73;16.02;;;9.30;13.60;;;;;;4924028;28;20405;-76
2022/03/22 06:02:04;;;;;;;26.83;16.98;;;9.30;13.60;;;;;;4930495;28;20405;-75
2022/03/22 06:04:29;;;;;;;26.02;16.10;;;9.40;13.40;;;;;;4919222;29;20401;-76
2022/03/22 06:06:55;;;;;;;27.70;17.05;;;9.50;13.90;;;;;;4921488;28;20485;-76
2022/03/22 06:09:20;;;;;;;27.47;16.13;;;9.50;13.20;;;;;;4920923;28;20504;-76
2022/03/22 06:11:46;;;;;;;24.97;16.23;;;9.60;13.10;;;;;;4918423;28;20409;-76
2022/03/22 06:14:11;;;;;;;27.57;16.43;;;9.60;13.10;;;;;;4915318;28;20405;-76
2022/03/22 06:16:37;;;;;;;24.60;15.40;;;9.70;12.70;;;;;;4920663;28;20409;-77
2022/03/22 06:19:03;;;;;;;26.80;16.20;;;9.70;12.40;;;;;;4914337;28;20430;-77
2022/03/22 06:21:28;;;;;;;28.40;16.03;;;9.80;13.00;;;;;;4928249;28;20488;-76
2022/03/22 06:23:54;;;;;;;26.63;16.20;;;9.90;12.20;;;;;;4937801;28;20473;-76
2022/03/22 06:26:20;;;;;;;24.37;15.67;;;9.80;12.60;;;;;;4921309;28;20456;-76
2022/03/22 06:28:46;;;;;;;26.50;15.60;;;10.00;11.90;;;;;;4919096;28;21036;-77
2022/03/22 06:31:11;;;;;;;29.52;16.63;;;10.10;12.00;;;;;;4916899;28;20802;-76
2022/03/22 06:33:38;;;;;;;25.65;16.08;;;10.20;11.50;;;;;;4902213;28;20445;-77
2022/03/22 06:36:05;;;;;;;29.63;16.43;;;10.20;11.70;;;;;;4910387;29;20419;-77
2022/03/22 06:38:34;;;;;;;26.88;15.98;;;10.20;11.60;;;;;;4931143;28;20413;-76
2022/03/22 06:41:00;;;;;;;27.13;16.63;;;10.40;12.40;;;;;;4903482;28;20799;-76
2022/03/22 06:43:25;;;;;;;30.98;17.00;;;10.30;11.40;;;;;;4899323;28;20448;-76
2022/03/22 06:45:51;;;;;;;27.43;16.40;;;10.40;11.50;;;;;;4919352;28;20433;-77
2022/03/22 06:48:17;;;;;;;22.63;15.30;;;10.60;11.10;;;;;;4915851;28;20409;-76
2022/03/22 06:50:47;;;;;;;27.80;17.35;;;10.70;11.10;;;;;;4915548;28;20912;-77
2022/03/22 06:53:13;;;;;;;26.48;15.50;;;10.70;10.70;;;;;;4912990;29;20414;-77
2022/03/22 06:55:39;;;;;;;26.70;16.80;;;10.70;11.30;;;;;;4915807;28;20432;-76
2022/03/22 06:58:05;;;;;;;26.27;16.17;;;10.80;10.80;;;;;;4896051;28;20421;-77
2022/03/22 07:00:32;;;;;;;25.48;16.10;;;10.90;10.40;;;;;;4908216;28;20416;-76
2022/03/22 07:03:00;;;;;;;28.85;17.60;;;11.00;10.60;;;;;;4911868;28;20915;-76
2022/03/22 07:05:26;;;;;;;27.65;17.00;;;11.00;10.40;;;;;;4910515;28;20457;-74
2022/03/22 07:07:51;;;;;;;25.70;15.70;;;11.10;10.30;;;;;;4911928;28;20402;-76
2022/03/22 07:10:18;;;;;;;29.43;16.10;;;11.10;10.00;;;;;;4918446;28;20728;-75
2022/03/22 07:12:51;;;;;;;26.10;16.58;;;11.30;10.00;;;;;;4916002;28;20746;-76
2022/03/22 07:15:23;;;;;;;26.20;16.02;;;11.40;9.40;;;;;;4918733;28;20423;-76
2022/03/22 07:17:49;;;;;;;24.05;16.20;;;11.40;10.10;;;;;;4919316;28;20446;-75
2022/03/22 07:20:14;;;;;;;30.92;16.67;;;11.50;9.60;;;;;;4917124;29;20484;-77
2022/03/22 07:22:41;;;;;;;28.20;15.90;;;11.60;9.00;;;;;;4913954;28;20464;-76
2022/03/22 07:25:08;;;;;;;27.02;15.98;;;11.70;9.40;;;;;;4911813;28;20468;-77
2022/03/22 07:27:34;;;;;;;26.45;15.30;;;11.80;8.50;;;;;;4913431;28;20428;-76
2022/03/22 07:30:01;;;;;;;30.13;16.38;;;11.90;8.50;;;;;;4910517;29;20413;-75
2022/03/22 07:32:27;;;;;;;26.83;16.30;;;12.00;9.10;;;;;;4911337;28;20418;-77
2022/03/22 07:34:53;;;;;;;26.57;16.37;;;12.00;8.40;;;;;;4902523;29;20459;-75
2022/03/22 07:37:19;;;;;;;29.07;15.97;;;12.10;8.00;;;;;;4922497;29;20500;-76
2022/03/22 07:39:45;;;;;;;26.27;16.25;;;12.20;8.60;;;;;;4923602;28;20474;-76
2022/03/22 07:42:11;;;;;;;46.95;18.60;;;12.30;7.80;;;;;;4915254;28;20453;-76
2022/03/22 07:44:38;;;;;;;36.40;17.63;;;12.40;8.70;;;;;;4925535;28;20490;-75
2022/03/22 07:47:03;;;;;;;90.32;23.38;;;12.60;8.20;;;;;;4918932;29;20447;-76
2022/03/22 07:54:59;;;;;;;50.13;21.25;;;13.00;7.70;;;;;;4922958;28;20421;-76
2022/03/22 07:57:24;;;;;;;40.50;17.73;;;12.90;6.70;;;;;;4915221;28;20417;-75
2022/03/22 07:59:50;;;;;;;57.83;22.57;;;13.10;6.80;;;;;;4919450;28;20413;-77
2022/03/22 08:02:15;;;;;;;66.33;24.50;;;13.20;6.60;;;;;;4922685;29;20417;-77
2022/03/22 08:04:41;;;;;;;56.10;20.90;;;13.30;6.00;;;;;;4912063;28;20429;-76
2022/03/22 08:07:07;;;;;;;47.70;19.48;;;13.40;5.20;;;;;;4927266;28;20474;-77
2022/03/22 08:09:33;;;;;;;52.15;21.95;;;13.50;5.60;;;;;;4911518;28;20437;-75
2022/03/22 08:11:58;;;;;;;57.90;23.23;;;13.70;6.20;;;;;;4918111;28;20421;-78
2022/03/22 08:14:24;;;;;;;351.10;84.30;;;13.70;5.50;;;;;;4912694;28;20425;-77
2022/03/22 08:16:49;;;;;;;417.75;82.95;;;13.80;5.60;;;;;;4910476;28;20421;-76
2022/03/22 08:19:18;;;;;;;154.13;46.90;;;13.80;5.70;;;;;;4918048;28;20405;-76
2022/03/22 08:21:45;;;;;;;185.68;53.20;;;13.90;6.30;;;;;;4896474;28;20555;-77
2022/03/22 08:24:10;;;;;;;323.53;92.53;;;14.20;4.60;;;;;;4910929;28;20519;-77
2022/03/22 08:26:36;;;;;;;178.00;42.00;;;14.00;4.40;;;;;;4912052;28;20421;-77
2022/03/22 08:29:03;;;;;;;271.42;62.25;;;13.90;4.10;;;;;;4925916;28;20422;-76
2022/03/22 08:31:29;;;;;;;131.70;34.95;;;14.20;4.40;;;;;;4908431;29;20649;-79
2022/03/22 08:33:56;;;;;;;165.30;52.23;;;14.20;4.00;;;;;;4909578;28;20413;-78
2022/03/22 08:36:22;;;;;;;248.43;86.53;;;14.20;4.20;;;;;;4893236;28;20427;-77
2022/03/22 08:38:48;;;;;;;454.87;136.77;;;14.40;3.80;;;;;;4907047;29;20460;-76
2022/03/22 08:41:14;;;;;;;864.17;310.25;;;14.50;3.90;;;;;;4919977;28;20398;-76
2022/03/22 08:43:40;;;;;;;387.40;84.70;;;14.60;3.90;;;;;;4899432;28;20760;-76
2022/03/22 08:46:06;;;;;;;635.55;130.13;;;14.70;3.30;;;;;;4898596;29;20571;-76
2022/03/22 08:48:32;;;;;;;727.75;180.35;;;14.80;2.80;;;;;;4893647;29;20503;-76
2022/03/22 08:50:58;;;;;;;1340.50;351.50;;;14.90;2.90;;;;;;4908891;28;20425;-76
2022/03/22 08:53:24;;;;;;;141.60;38.30;;;15.00;2.60;;;;;;4907665;28;20428;-76
2022/03/22 08:55:50;;;;;;;109.82;26.08;;;15.10;2.20;;;;;;4921338;28;20429;-76
2022/03/22 08:58:16;;;;;;;55.47;22.63;;;15.10;2.00;;;;;;4917292;28;20409;-75
2022/03/22 09:00:44;;;;;;;58.13;22.25;;;15.20;1.40;;;;;;4909943;28;20496;-75
2022/03/22 09:03:10;;;;;;;60.13;20.83;;;15.30;2.40;;;;;;4908739;28;20923;-75
2022/03/22 09:08:21;;;;;;;38.40;17.90;;;15.30;2.20;;;;;;4909003;28;20455;-75
2022/03/22 09:10:49;;;;;;;28.17;16.70;;;15.40;2.20;;;;;;4907925;28;20417;-77
2022/03/22 09:13:15;;;;;;;39.63;19.90;;;15.40;1.40;;;;;;4913050;28;20467;-77
2022/03/22 09:15:41;;;;;;;40.30;18.73;;;15.50;2.20;;;;;;4912908;29;20417;-77
2022/03/22 09:18:16;;;;;;;38.33;17.65;;;15.60;1.40;;;;;;4909154;28;20912;-77
2022/03/22 09:20:46;;;;;;;35.13;19.02;;;15.60;1.20;;;;;;4896830;28;20417;-76
2022/03/22 09:23:12;;;;;;;33.08;18.10;;;15.50;1.30;;;;;;4911820;28;20421;-76
2022/03/22 09:25:39;;;;;;;34.88;18.42;;;15.60;1.90;;;;;;4907097;28;20421;-76
2022/03/22 09:28:06;;;;;;;38.38;17.70;;;15.70;1.30;;;;;;4903031;28;20453;-78
2022/03/22 09:30:32;;;;;;;42.15;19.65;;;15.70;1.50;;;;;;4907514;28;20402;-76
2022/03/22 09:32:58;;;;;;;53.85;21.55;;;15.90;1.60;;;;;;4898082;28;20914;-76
2022/03/22 09:35:26;;;;;;;349.50;69.35;;;16.00;1.00;;;;;;4908809;29;21827;-77
2022/03/22 09:37:52;;;;;;;135.45;34.33;;;16.10;1.70;;;;;;4911187;28;20508;-74
2022/03/22 09:40:19;;;;;;;37.83;18.50;;;16.10;1.90;;;;;;4905990;28;20572;-77
2022/03/22 09:42:45;;;;;;;33.72;17.88;;;16.20;1.80;;;;;;4911980;28;20429;-75
2022/03/22 09:45:17;;;;;;;39.75;20.67;;;16.30;1.10;;;;;;4905792;28;20444;-73
2022/03/22 09:47:44;;;;;;;62.42;22.60;;;16.40;1.90;;;;;;4910594;29;20479;-73
2022/03/22 09:50:12;;;;;;;58.28;21.58;;;16.40;1.40;;;;;;4928916;28;20414;-75
2022/03/22 09:52:38;;;;;;;185.75;43.00;;;16.50;1.50;;;;;;4909620;28;20471;-74
2022/03/22 09:55:06;;;;;;;41.27;19.53;;;16.70;1.60;;;;;;4920604;28;20440;-74
2022/03/22 09:57:32;;;;;;;28.23;16.35;;;16.60;1.00;;;;;;4911362;28;20432;-76
2022/03/22 09:59:58;;;;;;;23.60;16.00;;;16.40;1.00;;;;;;4908381;28;20423;-76
2022/03/22 10:02:32;;;;;;;26.77;17.10;;;16.30;1.00;;;;;;4923605;28;20418;-75
2022/03/22 10:04:58;;;;;;;23.02;15.40;;;16.30;1.00;;;;;;4911774;28;20757;-76
2022/03/22 10:07:24;;;;;;;27.05;16.30;;;16.30;1.00;;;;;;4916341;28;20414;-75
2022/03/22 10:10:02;;;;;;;28.73;16.98;;;16.50;1.00;;;;;;4906941;28;20927;-76
2022/03/22 10:12:30;;;;;;;28.30;16.60;;;16.60;1.00;;;;;;4910825;29;20421;-77
2022/03/22 10:15:17;;;;;;;25.30;16.30;;;16.40;1.00;;;;;;4916716;29;20420;-76
2022/03/22 10:17:43;;;;;;;26.63;16.67;;;16.50;1.00;;;;;;4899211;29;20502;-77
2022/03/22 10:20:30;;;;;;;20.60;15.77;;;16.50;1.60;;;;;;4907169;28;20417;-77
2022/03/22 10:23:01;;;;;;;29.55;16.40;;;16.60;1.10;;;;;;4904965;28;20802;-78
2022/03/22 10:25:30;;;;;;;26.67;15.90;;;16.80;1.00;;;;;;4910389;28;20434;-76
2022/03/22 10:27:57;;;;;;;21.88;15.63;;;16.80;1.00;;;;;;4913565;28;20412;-78
2022/03/22 10:30:26;;;;;;;31.45;17.10;;;16.90;1.00;;;;;;4915327;28;20425;-78
2022/03/22 10:32:52;;;;;;;25.10;14.75;;;17.00;1.00;;;;;;4917259;28;20421;-77
2022/03/22 10:35:17;;;;;;;25.05;16.05;;;16.90;1.00;;;;;;4913019;28;20424;-76
2022/03/22 10:37:48;;;;;;;26.57;16.60;;;17.20;1.00;;;;;;4922695;28;20413;-77
2022/03/22 10:40:26;;;;;;;21.73;14.52;;;17.00;1.00;;;;;;4914254;29;20444;-76
2022/03/22 10:42:54;;;;;;;22.38;14.68;;;17.30;1.00;;;;;;4911956;28;20413;-75
2022/03/22 10:45:19;;;;;;;30.47;15.40;;;17.30;1.00;;;;;;4916088;28;20472;-76
2022/03/22 10:47:46;;;;;;;23.17;14.80;;;17.40;1.00;;;;;;4920278;28;20409;-77
2022/03/22 10:50:12;;;;;;;22.17;14.55;;;17.50;1.00;;;;;;4911935;29;20422;-79
2022/03/22 10:52:59;;;;;;;28.75;15.40;;;17.50;1.00;;;;;;4910731;28;20829;-76
2022/03/22 10:55:27;;;;;;;23.45;14.90;;;17.50;1.00;;;;;;4907723;28;20483;-76
2022/03/22 10:57:56;;;;;;;23.77;15.20;;;17.40;1.00;;;;;;4910905;28;20960;-77
2022/03/22 11:00:23;;;;;;;26.02;14.13;;;17.40;1.00;;;;;;4910518;28;21006;-75
2022/03/22 11:02:53;;;;;;;25.60;15.63;;;17.30;1.00;;;;;;4908729;28;20414;-77
2022/03/22 11:05:20;;;;;;;26.98;15.20;;;17.40;1.00;;;;;;4912587;28;20437;-76
2022/03/22 11:07:48;;;;;;;21.85;14.90;;;17.60;1.00;;;;;;4894980;28;20491;-78
2022/03/22 11:10:30;;;;;;;22.33;14.30;;;17.70;1.00;;;;;;4910535;28;20880;-76
2022/03/22 11:12:59;;;;;;;24.20;14.80;;;17.70;1.00;;;;;;4902581;28;20425;-77
2022/03/22 11:15:35;;;;;;;23.98;14.90;;;17.80;1.00;;;;;;4910750;28;20401;-77
2022/03/22 11:18:02;;;;;;;24.25;14.70;;;17.80;1.00;;;;;;4919086;28;20420;-77
2022/03/22 11:20:28;;;;;;;26.70;14.57;;;17.80;1.00;;;;;;4913664;29;20409;-78
2022/03/22 11:22:56;;;;;;;23.33;15.40;;;17.90;1.00;;;;;;4917837;28;20459;-78
2022/03/22 11:25:31;;;;;;;27.85;15.38;;;17.90;1.00;;;;;;4921639;29;20481;-76
2022/03/22 11:28:05;;;;;;;25.77;14.55;;;18.10;1.00;;;;;;4907829;28;20429;-74
2022/03/22 11:30:32;;;;;;;23.17;14.32;;;18.00;1.00;;;;;;4908388;29;20409;-75
2022/03/22 11:35:46;;;;;;;22.40;14.85;;;18.10;1.00;;;;;;4910851;29;20408;-74
2022/03/22 11:38:13;;;;;;;20.07;14.10;;;17.90;1.00;;;;;;4915065;28;20435;-75
2022/03/22 11:43:41;;;;;;;19.90;13.10;;;18.10;1.00;;;;;;4911536;29;20395;-76
2022/03/22 11:46:07;;;;;;;22.33;13.60;;;18.20;1.00;;;;;;4914690;28;20476;-73
2022/03/22 11:48:33;;;;;;;19.88;13.05;;;18.30;1.00;;;;;;4909380;28;20910;-75
2022/03/22 11:51:06;;;;;;;21.37;13.57;;;18.40;1.00;;;;;;4914126;28;20425;-74
2022/03/22 11:53:42;;;;;;;23.65;14.02;;;18.50;1.00;;;;;;4914012;28;20484;-76
2022/03/22 11:56:09;;;;;;;22.77;14.25;;;18.60;1.00;;;;;;4907666;28;20418;-75
2022/03/22 11:58:35;;;;;;;25.30;13.70;;;18.50;1.00;;;;;;4904875;28;20414;-75
2022/03/22 12:01:01;;;;;;;25.30;14.88;;;18.60;1.00;;;;;;4907466;28;20417;-75
2022/03/22 12:03:35;;;;;;;25.95;15.63;;;18.80;1.00;;;;;;4909761;28;20426;-75
2022/03/22 12:06:11;;;;;;;22.90;14.87;;;18.70;1.00;;;;;;4894945;29;20673;-75
2022/03/22 12:08:37;;;;;;;25.15;14.82;;;18.50;1.00;;;;;;4906907;28;20405;-75
2022/03/22 12:11:03;;;;;;;26.77;13.40;;;18.50;1.00;;;;;;4911326;28;20732;-76
2022/03/22 12:13:30;;;;;;;25.23;13.55;;;18.80;1.00;;;;;;4908679;28;20449;-75
2022/03/22 12:16:01;;;;;;;23.30;14.80;;;18.90;1.00;;;;;;4907949;28;20990;-74
2022/03/22 12:18:31;;;;;;;25.17;14.57;;;19.00;1.00;;;;;;4892808;28;20457;-75
2022/03/22 12:20:57;;;;;;;27.13;14.52;;;18.90;1.00;;;;;;4909691;29;20489;-76
2022/03/22 12:23:24;;;;;;;27.27;14.20;;;18.90;1.00;;;;;;4912188;28;20431;-75
2022/03/22 12:25:51;;;;;;;22.83;14.75;;;19.00;1.00;;;;;;4896937;28;20417;-76
2022/03/22 12:28:17;;;;;;;26.98;14.50;;;19.10;1.00;;;;;;4909687;28;20504;-75
2022/03/22 12:30:44;;;;;;;21.35;13.77;;;19.10;1.00;;;;;;4910421;28;20508;-76
2022/03/22 12:33:21;;;;;;;22.85;13.95;;;19.20;1.00;;;;;;4917330;28;20480;-74
2022/03/22 12:35:49;;;;;;;28.45;14.65;;;19.30;1.00;;;;;;4922362;28;20405;-76
2022/03/22 12:38:16;;;;;;;24.60;13.35;;;19.40;1.00;;;;;;4919014;28;20900;-77
2022/03/22 12:40:43;;;;;;;29.52;13.15;;;19.60;1.00;;;;;;4912838;28;20504;-74
2022/03/22 12:43:12;;;;;;;20.63;12.10;;;19.40;1.00;;;;;;4913352;29;20411;-74
2022/03/22 12:45:42;;;;;;;20.77;12.52;;;19.40;1.00;;;;;;4915343;28;20425;-78
2022/03/22 12:48:07;;;;;;;28.15;13.57;;;19.40;1.00;;;;;;4915235;28;20444;-76
2022/03/22 12:50:33;;;;;;;22.77;11.83;;;19.50;1.00;;;;;;4913021;29;20524;-76
2022/03/22 12:52:59;;;;;;;22.87;12.43;;;19.70;1.00;;;;;;4912151;28;21008;-76
2022/03/22 12:55:27;;;;;;;19.63;11.43;;;19.80;1.00;;;;;;4897594;28;20417;-79
2022/03/22 12:57:56;;;;;;;21.48;12.02;;;19.60;1.00;;;;;;4884193;29;20421;-75
2022/03/22 13:00:32;;;;;;;25.95;10.88;;;19.70;1.00;;;;;;4916415;28;21095;-75
2022/03/22 13:03:08;;;;;;;20.98;11.48;;;19.60;1.00;;;;;;4921873;28;20426;-73
2022/03/22 13:05:40;;;;;;;20.88;12.50;;;19.80;1.00;;;;;;4917668;28;20891;-75
2022/03/22 13:08:12;;;;;;;22.40;11.70;;;20.00;1.00;;;;;;4894417;29;20861;-75
2022/03/22 13:13:22;;;;;;;23.02;11.05;;;20.00;1.00;;;;;;4927281;28;20745;-74
2022/03/22 13:15:52;;;;;;;23.45;12.48;;;20.00;1.00;;;;;;4914773;28;20427;-76
2022/03/22 13:18:19;;;;;;;24.40;12.40;;;20.00;1.00;;;;;;4920416;28;20421;-75